LiveATC.Net - Listen to live air traffic control over the Internet!
Airport/ARTCC Code
Frequency Search
(e.g., 124.400, 128.75)
Site-wide search
 


Browse Feeds
Top 50 Feeds
HF Oceanic Feeds
Coverage Map
Bad Weather Areas

LiveATC FAQ
Offer LiveATC feed
Contact LiveATC.net
Press Inquiries

LiveATC on iPhone
LiveATC on Android

LiveATC Mobile
(Mobile browser)

ATC Audio Archives
Interesting Recordings

LiveATC Forums

Home Page
About LiveATC.net


Terms of Use
Privacy Policy

AIRMETs/SIGMETs

FAA Airport Status
NAS Status
Arrival Demand


Server Software By:
Icecast.org
Liquidsoap

Select an area of interest:
U.S. Feeds: Class B Airports | Class C Airports | Class D/Other Airports | ARTCC (Centers)
International Feeds: Canada | Europe | Oceania | Asia | South America | North/Central America | Africa
Misc Feeds: HF Feeds
Search by ICAO/IATA airport code:   (e.g., kbos, kjfk, lax, eham, etc.)


Currently Available Live Feeds: 3037
Status Updated: Sun May 22 2022 19:25:38 UTC


NOTICE

Unauthorized use prohibited. See LiveATC.net Terms of Service

South America Airport Feeds

 

SAEZ Gnd/Twr/Control
Buenos Aires, Argentina

Feed Status: DOWN
Offline since: 2022-05-12 00:45:05 UTC

SAEZ 221900Z 35008KT CAVOK 20/10 Q1016 NOSIG RMK PP000


SANT Tower/Apps (Archives)
Tucuman, Argentina

Feed Status: UP
Listen in your browser - HTML5 player(in browser, HTML5)
Click here to listen with your own player(launches your MP3 player)

SANT 221900Z 16003KT 090V250 CAVOK 25/08 Q1013 RMK PP000

SANT Flight Activity (Flightaware)

Listeners: 0 out of 1750 total

Aeroclub Tucuman: 119.000
Aerolineas Argentinas SOC Salta: 131.100
Aerolineas Argentinas SOC Tucuman: 131.950
Air To Air: 123.450
Andes Lineas Aereas: 132.000
Campo Arenal: 130.950
Catamarca Tower: 118.150
Copa Airlines: 129.400
Cordoba Centro Norte: 125.100
Cordoba Centro Sur: 126.500
Emergency/Guard: 121.500
Lan Argentina Operaciones: 131.700
Lan Peru: 131.300
Salta Tower: 128.850
Santiago del Estero Tower: 118.700
Taca Peru: 126.450
Termas de Rio Hondo: 118.200
Termas de Rio Hondo: 119.850
Tucuman Ground: 121.750
Tucuman Ground: 121.750
Tucuman Tower: 118.350
Tucuman Tower: 119.500

SASA Twr/App (Archives)
Salta, Argentina

Feed Status: UP
Listen in your browser - HTML5 player(in browser, HTML5)
Click here to listen with your own player(launches your MP3 player)

SASA 221900Z 03005KT 330V090 CAVOK 22/07 Q1017 RMK PP000

SASA Flight Activity (Flightaware)

Listeners: 1 out of 1750 total

Cordoba Approach (North): 125.100
Salta Approach: 124.600
Salta Tower: 126.000
Salta Tower/Ground: 128.850

SAZN Tower (Archives)
Neuquen, Argentina

Feed Status: UP
Listen in your browser - HTML5 player(in browser, HTML5)
Click here to listen with your own player(launches your MP3 player)

SAZN 221900Z 29016G27KT 9999 SCT025 BKN080 16/03 Q1010

SAZN Flight Activity (Flightaware)

Listeners: 0 out of 1750 total

Neuquen Tower/Approach: 119.800

SAZS Gnd/Twr/App (Archives)
Rio Negro, Argentina

Feed Status: UP
Listen in your browser - HTML5 player(in browser, HTML5)
Click here to listen with your own player(launches your MP3 player)

SAZS 221800Z 28017G27KT 9999 FEW023 SCT031 06/00 Q1010 RMK PP///

SAZS Flight Activity (Flightaware)

Listeners: 2 out of 1750 total

Bariloche Twr/App: 119.100
Comodoro Rivadavia Control: 125.500
Ezeiza South: 125.200

SBBE Twr/App/SBAZ (Archives)
Belem, Brazil

Feed Status: UP
Listen in your browser - HTML5 player(in browser, HTML5)
Click here to listen with your own player(launches your MP3 player)

SBBE 221900Z 09003KT 9999 SCT025 FEW030TCU SCT100 27/24 Q1012

SBBE Flight Activity (Flightaware)

Listeners: 7 out of 1750 total

Amazonica FIR (SBAZ): 126.500
Amazonica FIR (SBAZ): 128.000
Amazonica FIR (SBAZ): 123.950
Amazonica FIR (SBAZ): 126.150
Amazonica FIR (SBAZ): 126.650
Amazonica FIR (SBAZ): 133.700
Belem Approach: 119.050
Belem Approach: 119.500
Belem Tower: 118.700

SBBR Approach
Brasilia, Brazil

Feed Status: DOWN
Offline since: 2022-05-18 03:34:40 UTC

SBBR 221900Z 07007KT 040V110 9999 FEW045 26/08 Q1020

Brasilia Approach: 120.650
Brasilia Approach: 129.150
Brasilia Approach: 129.600
Brasilia Approach (Final): 119.200
Brasilia Departure: 119.500
Brasilia Departure: 119.700

SBBR Ground
Brasilia, Brazil

Feed Status: DOWN
Offline since: 2022-05-18 03:34:40 UTC

SBBR 221900Z 07007KT 040V110 9999 FEW045 26/08 Q1020

Brasilia Ground: 121.950
Brasilia Ground: 121.800

SBBR Tower
Brasilia, Brazil

Feed Status: DOWN
Offline since: 2022-05-18 03:35:06 UTC

SBBR 221900Z 07007KT 040V110 9999 FEW045 26/08 Q1020

Brasilia Tower: 118.100
Brasilia Tower: 181.750
Brasilia Tower: 118.450

SBCT Gnd/Twr/App
Curitiba, Brazil

Feed Status: DOWN
Offline since: 2022-05-21 22:56:08 UTC

SBCT 221900Z 02007KT 350V050 CAVOK 18/05 Q1022

Curitiba Approach: 119.950
Curitiba Ground: 121.900
Curitiba Tower: 118.150
Curitiba Tower: 118.900

SBDN Twr/App (Archives)
Presidente Prudente/Sao Paulo, Brazil

Feed Status: UP
Listen in your browser - HTML5 player(in browser, HTML5)
Click here to listen with your own player(launches your MP3 player)

SBDN 221800Z 34004KT CAVOK 25/06 Q1019

SBDN Flight Activity (Flightaware)

Listeners: 0 out of 1750 total

Air-to-Air: 123.450
Curitiba Sector 13: 133.595
Prudente Approach: 118.450
Prudente Tower: 125.450

SBEG Tower/App (Archives)
Manaus, Brazil

Feed Status: UP
Listen in your browser - HTML5 player(in browser, HTML5)
Click here to listen with your own player(launches your MP3 player)

SBEG 221900Z 16007KT 9999 SCT020 FEW025TCU SCT100 30/24 Q1013

SBEG Flight Activity (Flightaware)

Listeners: 3 out of 1750 total

Emergency/Guard: 121.500
Manaus Approach : 119.250
Manaus Approach: 120.400
Manaus Approach: 119.700
Manaus Tower: 118.300

SBFZ ACC/Misc
Fortaleza, Brazil

Feed Status: DOWN
Offline since: 2022-04-26 20:08:22 UTC

SBFZ 221900Z 11006KT 9999 BKN020 FEW025TCU 29/24 Q1013

Ait to Air: 123.450
SBAC: 131.250
SBJE: 131.050
SBJU: 131.750
SBMS: 125.800
SBPB: 126.600
SBRF ACC: 135.250
SBRF ACC: 133.500
SBRF ACC: 126.350
SBRF ACC: 125.150

SBFZ Twr/App/Center (Archives)
Fortaleza, Brazil

Feed Status: UP
Listen in your browser - HTML5 player(in browser, HTML5)
Click here to listen with your own player(launches your MP3 player)

SBFZ 221900Z 11006KT 9999 BKN020 FEW025TCU 29/24 Q1013

SBFZ Flight Activity (Flightaware)

Listeners: 3 out of 1750 total

ACC-RE (Fortaleza Sector): 125.150
ACC-RE (Fortaleza Sector): 126.350
ACC-RE (Fortaleza Sector): 135.250
Fortaleza Approach: 133.000
Fortaleza Tower: 129.000

SBGO Gnd/Twr/App (Archives)
Goiania, Brazil

Feed Status: UP
Listen in your browser - HTML5 player(in browser, HTML5)
Click here to listen with your own player(launches your MP3 player)

SBGO 221900Z 30006KT 260V350 CAVOK 29/05 Q1019

SBGO Flight Activity (Flightaware)

Listeners: 3 out of 1750 total

Anapolis Approach: 119.150
Anapolis Approach: 120.550
Anapolis Approach: 133.000
Anapolis Approach: 129.450
Emergency/Guard: 121.500
Goiania Ground: 121.700
Goiania Tower: 118.700
Goiania Tower: 121.050

SBJP Tower (Archives)
Joao Pessoa, Brazil

Feed Status: UP
Listen in your browser - HTML5 player(in browser, HTML5)
Click here to listen with your own player(launches your MP3 player)

SBJP 221900Z 11009KT 8000 VCSH BKN025 BKN070 26/24 Q1015

SBJP Flight Activity (Flightaware)

Listeners: 0 out of 1750 total

Joao Pessoa Tower: 118.300

SBJP Twr/Control/Airlines
Joao Pessoa, Brazil

Feed Status: DOWN
Offline since: 2022-05-14 00:30:39 UTC

SBJP 221900Z 11009KT 8000 VCSH BKN025 BKN070 26/24 Q1015

AZUL: 130.900
GOL: 131.225
Joao Pessoa Tower: 118.300
Recife Control: 119.500
TAM: 130.500

SBJU Tower/Center (Archives)
Juazeiro do Norte, Brazil

Feed Status: UP
Listen in your browser - HTML5 player(in browser, HTML5)
Click here to listen with your own player(launches your MP3 player)

SBJU 221800Z 15010KT 9999 BKN020 27/21 Q1019

SBJU Flight Activity (Flightaware)

Listeners: 3 out of 1750 total

Pilot-to-Pilot: 123.450
Radio Juazeiro: 131.750
Recife Center: 135.250
Recife Center: 125.150

SBKP Approach
Campinas, Brazil

Feed Status: DOWN
Offline since: 2022-01-07 19:28:23 UTC

SBKP 221900Z 36004KT 320V040 CAVOK 24/05 Q1021

Campinas Approach: 132.100
Campinas Approach: 135.750

SBKP Tower #1 (Archives)
Campinas, Brazil

Feed Status: UP
Listen in your browser - HTML5 player(in browser, HTML5)
Click here to listen with your own player(launches your MP3 player)

SBKP 221900Z 36004KT 320V040 CAVOK 24/05 Q1021

SBKP Flight Activity (Flightaware)

Listeners: 4 out of 1750 total

Campinas Tower: 118.250

SBKP Tower #2 (Archives)
Campinas, Brazil

Feed Status: UP
Listen in your browser - HTML5 player(in browser, HTML5)
Click here to listen with your own player(launches your MP3 player)

SBKP 221900Z 36004KT 320V040 CAVOK 24/05 Q1021

SBKP Flight Activity (Flightaware)

Listeners: 0 out of 1750 total

Campinas Tower: 118.250

SBLO Twr/App/Center (Archives)
Londrina, Brazil

Feed Status: UP
Listen in your browser - HTML5 player(in browser, HTML5)
Click here to listen with your own player(launches your MP3 player)

SBLO 221900Z 04009KT CAVOK 23/07 Q1019

SBLO Flight Activity (Flightaware)

Listeners: 0 out of 1750 total

Curitiba Center: 128.350
Curitiba Center: 135.100
Curitiba Center: 125.800
Curitiba Center: 126.950
Emergency/Guard: 121.500
Londrina Approach: 129.700
Londrina Tower: 118.400
UNICOM: 123.450

SBMG Twr/App (Archives)
Maringa, Brazil

Feed Status: UP
Listen in your browser - HTML5 player(in browser, HTML5)
Click here to listen with your own player(launches your MP3 player)

SBMG 221800Z 01007KT 350V060 CAVOK 23/08 Q1019

SBMG Flight Activity (Flightaware)

Listeners: 3 out of 1750 total

Londrina Approach: 129.700
Maringa Tower: 118.750
UNICOM: 123.450

SBMK RDO/Center (Archives)
Montes Claros, Brazil

Feed Status: UP
Listen in your browser - HTML5 player(in browser, HTML5)
Click here to listen with your own player(launches your MP3 player)

SBMK Flight Activity (Flightaware)

Listeners: 2 out of 1750 total

Brasilia Center (Sector 15): 127.300
Montes Claros RDO: 131.700

SBMQ Tower/App/Center (Archives)
Macapa, Brazil

Feed Status: UP
Listen in your browser - HTML5 player(in browser, HTML5)
Click here to listen with your own player(launches your MP3 player)

SBMQ 221900Z 14002KT 9999 SCT013 SCT016 BKN080 26/25 Q1013 RETSRA

SBMQ Flight Activity (Flightaware)

Listeners: 1 out of 1750 total

Amazonico Center: 123.950
Amazonico Center: 128.000
Macapa Approach: 119.000
Macapa Tower: 118.000

SBMT Tower
Sao Paulo, Brazil

Feed Status: DOWN
Offline since: 2022-02-08 12:31:22 UTC

Marte Tower: 133.350

SBNF Tower
Navegantes, Brazil

Feed Status: DOWN
Offline since: 2022-05-02 19:41:39 UTC

SBNF 221900Z 06010KT CAVOK 20/14 Q1020

Navegantes Tower: 118.200

SBPA Gnd/Twr/App/Center (Archives)
Porto Alegre, Brazil

Feed Status: UP
Listen in your browser - HTML5 player(in browser, HTML5)
Click here to listen with your own player(launches your MP3 player)

SBPA 221900Z VRB02KT 9999 FEW040 21/12 Q1020

SBPA Flight Activity (Flightaware)

Listeners: 6 out of 1750 total

BACO (Canoas) Ground: 121.700
BACO (Canoas) Tower: 118.500
BACO (Canoas) Tower (Mil): 122.800
Curitiba Center (Sector 1/South SBPA): 126.750
Curitiba Center (Sector 1/South SBPA): 127.400
Curitiba Center (Sector 2): 123.725
Curitiba Center (Sector 2): 135.900
Curitiba Center (Sector 3/West SBFL): 127.500
Curitiba Center (Sector 3/West SBFL): 126.100
Curitiba Center (Sector 4/South SBFL): 135.850
Curitiba Center (Sector 4/South SBFL): 128.450
Curitiba Center (Sector 5/East SBCT): 124.400
Curitiba Center (Sector 5/East SBCT): 125.400
Curitiba Center (Sector 6/East SBCT Atlantico): 128.400
Curitiba Center (Sector 6/East SBCT Atlantico): 127.050
Curitiba Center (Sector 9/North SBCT): 132.800
Curitiba Center (Sector 9/North SBCT): 126.500
Emergency/Guard: 121.500
Porto Alegre Approach Sector 1: 120.100
Porto Alegre Approach Sector 2: 120.550
Porto Alegre Approach Sector 3: 128.900
Porto Alegre Approach Sector 4: 119.000
Salgado Filho Ground: 121.900
Salgado Filho Tower: 118.100

SBPB Info (Archives)
Parnaiba, Brazil

Feed Status: UP
Listen in your browser - HTML5 player(in browser, HTML5)
Click here to listen with your own player(launches your MP3 player)

SBPB 221900Z 03006KT 9999 SCT020 FEW025TCU 28/25 Q////

SBPB Flight Activity (Flightaware)

Listeners: 6 out of 1750 total

Parnaiba Info: 126.600

SBPL RDO/ACC (Archives)
Petrolina, Brazil

Feed Status: UP
Listen in your browser - HTML5 player(in browser, HTML5)
Click here to listen with your own player(launches your MP3 player)

SBPL 221900Z 19008KT 9999 SCT035 29/16 Q1016

SBPL Flight Activity (Flightaware)

Listeners: 3 out of 1750 total

ACC RE Sector 5: 127.500
ACC RE Sector 5: 128.450
ACC RE Sector 6: 125.400
ACC RE Sector 6: 134.900
Air to Air/UNICOM: 123.450
Emergency/Guard: 121.500
Misc: 123.400
Petrolina RDO: 125.700
Recife FIS: 123.625

SBRF App 129.60 (Archives)
Recife, Brazil

Feed Status: UP
Listen in your browser - HTML5 player(in browser, HTML5)
Click here to listen with your own player(launches your MP3 player)

SBRF 221900Z 18018KT 9999 VCSH BKN019 28/23 Q1014

SBRF Flight Activity (Flightaware)

Listeners: 6 out of 1750 total

Recife Approach: 129.600

SBRF Gol Ops (Archives)
Recife, Brazil

Feed Status: UP
Listen in your browser - HTML5 player(in browser, HTML5)
Click here to listen with your own player(launches your MP3 player)

SBRF 221900Z 18018KT 9999 VCSH BKN019 28/23 Q1014

SBRF Flight Activity (Flightaware)

Listeners: 0 out of 1750 total

Gol Ops: 131.225

SBRF Ground (Archives)
Recife, Brazil

Feed Status: UP
Listen in your browser - HTML5 player(in browser, HTML5)
Click here to listen with your own player(launches your MP3 player)

SBRF 221900Z 18018KT 9999 VCSH BKN019 28/23 Q1014

SBRF Flight Activity (Flightaware)

Listeners: 0 out of 1750 total

Recife Ground: 121.850

SBRF LATAM Ops (Archives)
Recife, Brazil

Feed Status: UP
Listen in your browser - HTML5 player(in browser, HTML5)
Click here to listen with your own player(launches your MP3 player)

SBRF 221900Z 18018KT 9999 VCSH BKN019 28/23 Q1014

SBRF Flight Activity (Flightaware)

Listeners: 0 out of 1750 total

LATAM Ops: 130.500

SBRF Recife ACC (Archives)
Recife, Brazil

Feed Status: UP
Listen in your browser - HTML5 player(in browser, HTML5)
Click here to listen with your own player(launches your MP3 player)

SBRF 221900Z 18018KT 9999 VCSH BKN019 28/23 Q1014

SBRF Flight Activity (Flightaware)

Listeners: 2 out of 1750 total

Recife Center: 128.700
Recife Center: 133.650
Recife Center: 134.800

SBRF Tower (Archives)
Recife, Brazil

Feed Status: UP
Listen in your browser - HTML5 player(in browser, HTML5)
Click here to listen with your own player(launches your MP3 player)

SBRF 221900Z 18018KT 9999 VCSH BKN019 28/23 Q1014

SBRF Flight Activity (Flightaware)

Listeners: 0 out of 1750 total

Recife Tower: 125.250
Recife Tower: 118.350
Recife Tower: 118.900

SBRP Tower/Center (Archives)
Ribeirao Preto, Brazil

Feed Status: UP
Listen in your browser - HTML5 player(in browser, HTML5)
Click here to listen with your own player(launches your MP3 player)

SBRP 221900Z 29003KT CAVOK 26/06 Q1019

SBRP Flight Activity (Flightaware)

Listeners: 1 out of 1750 total

Leite Lopes Tower: 118.000
Pirassununga Center (North): 119.550

SBSL Twr/App/FIR (Archives)
Sao Luis, Brazil

Feed Status: UP
Listen in your browser - HTML5 player(in browser, HTML5)
Click here to listen with your own player(launches your MP3 player)

SBSL 221900Z 07010KT 9999 BKN017 FEW020TCU 26/24 Q1014

SBSL Flight Activity (Flightaware)

Listeners: 0 out of 1750 total

Amazonica Center: 133.700
Sao Luis Approach: 119.100
Sao Luis Tower: 118.900

SBSN Twr/App/ACC (Archives)
Santarem, Brazil

Feed Status: UP
Listen in your browser - HTML5 player(in browser, HTML5)
Click here to listen with your own player(launches your MP3 player)

SBSN 221900Z 29002KT 9999 FEW016 FEW023TCU SCT100 30/25 Q1013

SBSN Flight Activity (Flightaware)

Listeners: 0 out of 1750 total

Brasilia Center/ACC: 123.650
Brasilia Center/ACC: 125.050
Santarem Approach: 119.300
Santarem Tower: 118.100

SBSR AFIS/App/Center (Archives)
Sao Jose do Rio Preto, Brazil

Feed Status: UP
Listen in your browser - HTML5 player(in browser, HTML5)
Click here to listen with your own player(launches your MP3 player)

SBSR 221800Z 04006KT CAVOK 25/03 Q1019

SBSR Flight Activity (Flightaware)

Listeners: 3 out of 1750 total

Academia Approach (North Sector): 119.750
Academia Approach (North Sector): 120.400
Brasilia Center: 135.150
Rio Preto Radio AFIS: 130.850

SBTE Twr/App (Archives)
Teresina, Brazil

Feed Status: UP
Listen in your browser - HTML5 player(in browser, HTML5)
Click here to listen with your own player(launches your MP3 player)

SBTE 221900Z 16005KT 9999 SCT040 31/22 Q1012

SBTE Flight Activity (Flightaware)

Listeners: 3 out of 1750 total

Teresina Approach: 119.600
Teresina Tower: 118.800

SBRE Recife ACC (Archives)
Paulo Afonso, Brazil

Feed Status: UP
Listen in your browser - HTML5 player(in browser, HTML5)
Click here to listen with your own player(launches your MP3 player)

SBRE Flight Activity (Flightaware)

Listeners: 0 out of 1750 total

Recife Center (ACC): 125.400
Recife Center (ACC): 125.450
Recife Center (ACC): 126.850
Recife Center (ACC): 133.650
Recife Center (ACC): 134.500
Recife Center (ACC): 134.900

SBUF AFIS/Center (Archives)
Paulo Afonso, Brazil

Feed Status: UP
Listen in your browser - HTML5 player(in browser, HTML5)
Click here to listen with your own player(launches your MP3 player)


SBUF Flight Activity (Flightaware)

Listeners: 1 out of 1750 total

Paulo Afonso Radio: 125.850
Recife Center: 133.650
Recife Center: 134.500
Recife Center: 125.450

SBQV AFIS
Vitoria da Conquista, Brazil

Feed Status: DOWN
Offline since: 2022-05-19 03:01:22 UTC

Conquista AFIS: 130.850
Despacho Azul: 131.875
Despacho Passaredo: 132.000

SCEL Gnd/Twr/Radar
Santiago, Chile

Feed Status: DOWN
Offline since: 2022-04-27 18:47:39 UTC

SCEL 221900Z 18008KT 9999 BKN150 16/07 Q1022 NOSIG

Santiago Authorizations: 121.700
Santiago Control (Lat 3323S North): 128.100
Santiago Control (Lat 3323S South): 126.300
Santiago Ground (Primary): 122.200
Santiago Ground (Secondary): 122.500
Santiago Radar: 125.400
Santiago Radar: 135.400
Santiago Radar (Arrival, Primary): 129.700
Santiago Radar (Arrival, Secondary): 119.700
Santiago Radar (Arrival, Secondary): 123.800
Santiago Radar (Departure, Primary): 121.100
Santiago Radar (Departure, Secondary): 123.800
Santiago Radar (Information, Primary): 122.400
Santiago Radar (Information, Secondary): 120.800
Santiago Radar (Information, Secondary): 123.800
Santiago Tower (Primary): 118.100
Santiago Tower (Secondary): 118.350
SCTB Tobalaba Tower: 118.700

SEGU App/Dep/Info (Archives)
Guayaquil, Ecuador

Feed Status: UP
Listen in your browser - HTML5 player(in browser, HTML5)
Click here to listen with your own player(launches your MP3 player)

SEGU 221900Z 16005KT 9999 BKN023 OVC100 28/23 Q1012 NOSIG RMK A2989

SEGU Flight Activity (Flightaware)

Listeners: 0 out of 1750 total

Guayaquil Approach: 120.700
Guayaquil Approach (Secondary): 119.300
Guayaquil Info: 126.900

SEGU Gnd/Twr (Archives)
Guayaquil, Ecuador

Feed Status: UP
Listen in your browser - HTML5 player(in browser, HTML5)
Click here to listen with your own player(launches your MP3 player)

SEGU 221900Z 16005KT 9999 BKN023 OVC100 28/23 Q1012 NOSIG RMK A2989

SEGU Flight Activity (Flightaware)

Listeners: 0 out of 1750 total

Guayaquil Ground: 121.900
Guayaquil Ground (Secondary): 121.700
Guayaquil Tower: 118.300
Guayaquil Tower (Secondary): 118.900

SEGU Gnd/Twr/App (Archives)
Guayaquil, Ecuador

Feed Status: UP
Listen in your browser - HTML5 player(in browser, HTML5)
Click here to listen with your own player(launches your MP3 player)

SEGU 221900Z 16005KT 9999 BKN023 OVC100 28/23 Q1012 NOSIG RMK A2989

SEGU Flight Activity (Flightaware)

Listeners: 0 out of 1750 total

Guayaquil Approach: 120.700
Guayaquil Ground: 121.900
Guayaquil Tower: 118.300

SEGU Guayaquil Center (Archives)
Guayaquil, Ecuador

Feed Status: UP
Listen in your browser - HTML5 player(in browser, HTML5)
Click here to listen with your own player(launches your MP3 player)

SEGU 221900Z 16005KT 9999 BKN023 OVC100 28/23 Q1012 NOSIG RMK A2989

SEGU Flight Activity (Flightaware)

Listeners: 0 out of 1750 total

Guayaquil Center: 127.950
Guayaquil Center: 128.300
Guayaquil Center (Secondary): 128.000
Guayaquil Center (Secondary): 123.900

SEQM ATIS (Archives)
Quito, Ecuador

Feed Status: UP
Listen in your browser - HTML5 player(in browser, HTML5)
Click here to listen with your own player(launches your MP3 player)

SEQM 221900Z 35013KT 9999 SCT030 23/12 Q1025 NOSIG RMK A3029

SEQM Flight Activity (Flightaware)

Listeners: 0 out of 1750 total

Quito ATIS: 118.700

SEQM Gnd/Twr/App (Archives)
Quito, Ecuador

Feed Status: UP
Listen in your browser - HTML5 player(in browser, HTML5)
Click here to listen with your own player(launches your MP3 player)

SEQM 221900Z 35013KT 9999 SCT030 23/12 Q1025 NOSIG RMK A3029

SEQM Flight Activity (Flightaware)

Listeners: 1 out of 1750 total

Quito Approach/Departure: 119.700
Quito Approach/Departure: 121.200
Quito Ground: 121.900
Quito Tower: 118.100
Quito Tower (Secondary): 118.350

SEQM Tower (Archives)
Quito, Ecuador

Feed Status: UP
Listen in your browser - HTML5 player(in browser, HTML5)
Click here to listen with your own player(launches your MP3 player)

SEQM 221900Z 35013KT 9999 SCT030 23/12 Q1025 NOSIG RMK A3029

SEQM Flight Activity (Flightaware)

Listeners: 0 out of 1750 total

Quito Tower: 118.100
Quito Tower (Secondary): 118.350

SKBO Del/Gnd/Twr/App
Bogota, Colombia

Feed Status: DOWN
Offline since: 2020-09-01 16:38:05 UTC

SKBO 221900Z 14010KT 9999 SCT020 21/08 Q1028 NOSIG RMK A3035

Bogota Approach: 119.500
Bogota Clearance Delivery: 121.600
Bogota Departure (North): 121.300
Bogota Departure (South): 119.650
Bogota Ground (North): 121.800
Bogota Ground (South): 122.750
Bogota Information: 126.900
Bogota Tower (North): 118.100
Bogota Tower (South): 118.250
Guaymaral Ground: 121.700
Guaymaral Tower: 118.800

SNRZ Area
Oliveira, Brazil

Feed Status: DOWN
Offline since: 2022-05-11 14:09:06 UTC

Azul: 130.900
Brasilia ACC-BS (Air Control Center): 133.450
Brasilia ACC-BS (Air Control Center): 135.550
Brasilia ACC-BS (Air Control Center): 126.150
Brasilia ACC-BS (Air Control Center): 126.800
Brasilia ACC-BS (Air Control Center): 125.050
Brasilia ACC-BS (Air Control Center): 126.500
Brasilia ACC-BS (Air Control Center): 122.650
Brasilia ACC-BS (Air Control Center): 126.550
Brasilia ACC-BS (Air Control Center): 123.350
Brasilia ACC-BS (Air Control Center): 124.750
Brasilia ACC-BS (Air Control Center): 134.750
Brasilia ACC-BS (Air Control Center): 133.600
Brasilia ACC-BS (Air Control Center): 124.800
Brasilia ACC-BS (Air Control Center): 124.250
Brasilia ACC-BS (Air Control Center): 127.300
Brasilia ACC-BS (Air Control Center): 127.000
Brasilia ACC-BS (Air Control Center): 124.250
Brasilia ACC-BS (Air Control Center): 127.300
Brasilia ACC-BS (Air Control Center): 127.000
Brasilia ACC-BS (Air Control Center): 133.450
Brasilia ACC-BS (Air Control Center): 135.550
Brasilia ACC-BS (Air Control Center): 126.150
Brasilia ACC-BS (Air Control Center): 126.800
Brasilia ACC-BS (Air Control Center): 125.050
Brasilia ACC-BS (Air Control Center): 126.500
Brasilia ACC-BS (Air Control Center): 122.650
Brasilia ACC-BS (Air Control Center): 126.550
Brasilia ACC-BS (Air Control Center): 123.350
Brasilia ACC-BS (Air Control Center): 124.750
Brasilia ACC-BS (Air Control Center): 134.750
Brasilia ACC-BS (Air Control Center): 133.600
Brasilia ACC-BS (Air Control Center): 124.800
Curitiba ACC-CW: 126.500
Curitiba ACC-CW: 134.750
Curitiba ACC-CW: 124.000
Curitiba ACC-CW: 125.350
Emergency: 121.500
Emergency: 121.500
GOL Coordination: 131.225
TAM Coordination: 130.500
TAM Maintenance: 130.600
Trip Coordination: 131.375

SPJC Approach (Archives)
Lima, Peru

Feed Status: UP
Listen in your browser - HTML5 player(in browser, HTML5)
Click here to listen with your own player(launches your MP3 player)

SPJC 221900Z 26004KT 210V310 6000 OVC010 17/14 Q1016 NOSIG RMK PP000

SPJC Flight Activity (Flightaware)

Listeners: 0 out of 1750 total

Lima Approach: 119.700

SPJC Ground (Archives)
Lima, Peru

Feed Status: UP
Listen in your browser - HTML5 player(in browser, HTML5)
Click here to listen with your own player(launches your MP3 player)

SPJC 221900Z 26004KT 210V310 6000 OVC010 17/14 Q1016 NOSIG RMK PP000

SPJC Flight Activity (Flightaware)

Listeners: 0 out of 1750 total

Lima Ground: 121.900

SPJC Tower (Archives)
Lima, Peru

Feed Status: UP
Listen in your browser - HTML5 player(in browser, HTML5)
Click here to listen with your own player(launches your MP3 player)

SPJC 221900Z 26004KT 210V310 6000 OVC010 17/14 Q1016 NOSIG RMK PP000

SPJC Flight Activity (Flightaware)

Listeners: 4 out of 1750 total

Lima Tower: 118.100

SPQU Radar (Archives)
Arequipa, Peru

Feed Status: UP
Listen in your browser - HTML5 player(in browser, HTML5)
Click here to listen with your own player(launches your MP3 player)

SPQU 221900Z 25007KT 200V300 CAVOK 20/M07 Q1029 RMK PP000

SPQU Flight Activity (Flightaware)

Listeners: 0 out of 1750 total

Radar Sur-dos: 128.800

SPST Tower (Archives)
Tarapoto, Peru

Feed Status: UP
Listen in your browser - HTML5 player(in browser, HTML5)
Click here to listen with your own player(launches your MP3 player)

SPST 221900Z 00000KT 9999 SCT020 34/23 Q1012 RMK BIRD HAZARD RWY 17/35 PP000

SPST Flight Activity (Flightaware)

Listeners: 0 out of 1750 total

Tarapoto Tower: 118.400

SSBL Air to Air (Archives)
Blumenau, Brazil

Feed Status: UP
Listen in your browser - HTML5 player(in browser, HTML5)
Click here to listen with your own player(launches your MP3 player)

SSBL Flight Activity (Flightaware)

Listeners: 3 out of 1750 total

Air to Air: 123.450

SUAA Tower (Archives)
Montevideo, Uruguay

Feed Status: UP
Listen in your browser - HTML5 player(in browser, HTML5)
Click here to listen with your own player(launches your MP3 player)

SUAA 221900Z 02009KT CAVOK 19/11 Q1018

SUAA Flight Activity (Flightaware)

Listeners: 1 out of 1750 total

Adami Tower: 118.400
Adami Tower (backup): 122.100
Emergency/Guard: 121.500

SUCM AFIS/SUCA/SADF Twr (Archives)
Carmelo, Uruguay

Feed Status: UP
Listen in your browser - HTML5 player(in browser, HTML5)
Click here to listen with your own player(launches your MP3 player)


SUCM Flight Activity (Flightaware)

Listeners: 1 out of 1750 total

Carmelo AFIS: 122.100
Colonia Tower (SUCA): 120.800
San Fernando Tower (SADF): 120.700

SUDU Twr/App/FIR (Archives)
Durazno, Uruguay

Feed Status: UP
Listen in your browser - HTML5 player(in browser, HTML5)
Click here to listen with your own player(launches your MP3 player)

SUDU 221800Z 02005KT 9999 FEW016 SCT200 20/11 Q1019

SUDU Flight Activity (Flightaware)

Listeners: 1 out of 1750 total

Durazno Twr/App: 120.400
Durazno Twr/App: 126.200
Montevideo Control - Centro (Central): 126.300

SULS Tower (Archives)
Punta del Este, Uruguay

Feed Status: UP
Listen in your browser - HTML5 player(in browser, HTML5)
Click here to listen with your own player(launches your MP3 player)

SULS 221900Z 19005KT CAVOK 17/11 Q1018

SULS Flight Activity (Flightaware)

Listeners: 1 out of 1750 total

Air to Air: 123.450
SULS A/G: 122.100
SULS Tower: 118.300

SUMO Tower (Archives)
Melo, Uruguay

Feed Status: UP
Listen in your browser - HTML5 player(in browser, HTML5)
Click here to listen with your own player(launches your MP3 player)


SUMO Flight Activity (Flightaware)

Listeners: 1 out of 1750 total

Melo Ramp: 122.100
Melo Tower: 118.600

SUMU App/Dep (Archives)
Montevideo, Uruguay

Feed Status: UP
Listen in your browser - HTML5 player(in browser, HTML5)
Click here to listen with your own player(launches your MP3 player)

SUMU 221900Z 02006KT CAVOK 19/09 Q1018 NOSIG

SUMU Flight Activity (Flightaware)

Listeners: 0 out of 1750 total

SUMU Approach: 119.200
SUMU Approach: 120.200
SUMU Control: 128.500

SUMU Twr/App (Archives)
Montevideo, Uruguay

Feed Status: UP
Listen in your browser - HTML5 player(in browser, HTML5)
Click here to listen with your own player(launches your MP3 player)

SUMU 221900Z 02006KT CAVOK 19/09 Q1018 NOSIG

SUMU Flight Activity (Flightaware)

Listeners: 3 out of 1750 total

SUMU Approach: 119.200
SUMU Tower: 118.100

SUMU Twr/Info (Archives)
Montevideo, Uruguay

Feed Status: UP
Listen in your browser - HTML5 player(in browser, HTML5)
Click here to listen with your own player(launches your MP3 player)

SUMU 221900Z 02006KT CAVOK 19/09 Q1018 NOSIG

SUMU Flight Activity (Flightaware)

Listeners: 0 out of 1750 total

SUMU Info: 121.800
SUMU Tower: 118.100

SUPE CTAF (Archives)
Punta del Este, Uruguay

Feed Status: UP
Listen in your browser - HTML5 player(in browser, HTML5)
Click here to listen with your own player(launches your MP3 player)

SULS 221900Z 19005KT CAVOK 17/11 Q1018

SULS Flight Activity (Flightaware)

Listeners: 1 out of 1750 total

SUPE CTAF: 118.700

SUPU/SUPC Misc
Paysandu, Uruguay

Feed Status: DOWN
Offline since: 2021-10-28 06:09:39 UTC


Chalkling Tower: 118.700
Paysandu Tower: 118.200

SURV Tower/Ramp (Archives)
Rivera, Uruguay

Feed Status: UP
Listen in your browser - HTML5 player(in browser, HTML5)
Click here to listen with your own player(launches your MP3 player)


SURV Flight Activity (Flightaware)

Listeners: 1 out of 1750 total

Rivera Flying Club Ops: 118.100
Rivera Ramp/Tower: 118.000
Rivera Ramp/Tower: 122.100

SUSO Tower/Ramp (Archives)
Salto, Uruguay

Feed Status: UP
Listen in your browser - HTML5 player(in browser, HTML5)
Click here to listen with your own player(launches your MP3 player)

SUSO 221900Z 04006KT 9999 FEW022 20/12 Q1018

SUSO Flight Activity (Flightaware)

Listeners: 0 out of 1750 total


SVPR Twr/App/FIR (Archives)
Ciudad Guayana, Venezuela

Feed Status: UP
Listen in your browser - HTML5 player(in browser, HTML5)
Click here to listen with your own player(launches your MP3 player)

SVPR Flight Activity (Flightaware)

Listeners: 1 out of 1750 total

Emergency/Guard: 121.500
FIR 6: 126.000
Guayana Approach (Primary): 119.500
Guayana Approach (Secondary): 120.300
Guayana Tower (Primary): 118.000
Guayana Tower (Secondary): 123.500
SMC: 121.900

TNCA Twr/App/Apron (Archives)
Oranjestad, Aruba

Feed Status: UP
Listen in your browser - HTML5 player(in browser, HTML5)
Click here to listen with your own player(launches your MP3 player)

TNCA 221800Z 08023KT 9999 FEW024 31/23 Q1015 NOSIG

TNCA Flight Activity (Flightaware)

Listeners: 3 out of 1750 total

Beatrix Ground (Apron): 121.600
Beatrix Tower: 118.000
Beatrix Twr/App: 120.900
Emergency/Guard: 121.500
Search/Rescue: 123.100

TNCB ATIS (Archives)
Kralendijk, Bonaire

Feed Status: UP
Listen in your browser - HTML5 player(in browser, HTML5)
Click here to listen with your own player(launches your MP3 player)

TNCB 221755Z 09021KT CAVOK 31/22 Q1015

TNCB Flight Activity (Flightaware)

Listeners: 0 out of 1750 total

Bonaire ATIS: 132.300

TNCB Tower (Archives)
Kralendijk, Bonaire

Feed Status: UP
Listen in your browser - HTML5 player(in browser, HTML5)
Click here to listen with your own player(launches your MP3 player)

TNCB 221755Z 09021KT CAVOK 31/22 Q1015

TNCB Flight Activity (Flightaware)

Listeners: 2 out of 1750 total

Bonaire Tower: 118.700

TNCC ATIS (Archives)
Willemstad, Curacao

Feed Status: UP
Listen in your browser - HTML5 player(in browser, HTML5)
Click here to listen with your own player(launches your MP3 player)

TNCC 221800Z 09015KT 9999 FEW030 31/23 Q1016 NOSIG

TNCC Flight Activity (Flightaware)

Listeners: 0 out of 1750 total

Hato ATIS: 132.600

TNCC Control (Archives)
Willemstad, Curacao

Feed Status: UP
Listen in your browser - HTML5 player(in browser, HTML5)
Click here to listen with your own player(launches your MP3 player)

TNCC 221800Z 09015KT 9999 FEW030 31/23 Q1016 NOSIG

TNCC Flight Activity (Flightaware)

Listeners: 2 out of 1750 total

Curacao Control: 124.100
Curacao Control: 127.100

TNCC Radar (Archives)
Willemstad, Curacao

Feed Status: UP
Listen in your browser - HTML5 player(in browser, HTML5)
Click here to listen with your own player(launches your MP3 player)

TNCC 221800Z 09015KT 9999 FEW030 31/23 Q1016 NOSIG

TNCC Flight Activity (Flightaware)

Listeners: 0 out of 1750 total

Hato Radar (1700-2300Z): 119.800

TNCC Tower (Archives)
Willemstad, Curacao

Feed Status: UP
Listen in your browser - HTML5 player(in browser, HTML5)
Click here to listen with your own player(launches your MP3 player)

TNCC 221800Z 09015KT 9999 FEW030 31/23 Q1016 NOSIG

TNCC Flight Activity (Flightaware)

Listeners: 0 out of 1750 total

Hato Tower: 118.300

TNCC Twr/Radar/Control (Archives)
Willemstad, Curacao

Feed Status: UP
Listen in your browser - HTML5 player(in browser, HTML5)
Click here to listen with your own player(launches your MP3 player)

TNCC 221800Z 09015KT 9999 FEW030 31/23 Q1016 NOSIG

TNCC Flight Activity (Flightaware)

Listeners: 1 out of 1750 total

Curacao Control: 127.100
Hato Radar: 119.600
Hato Tower: 118.300

TTCP Gnd/Twr/App (Archives)
Scarborough, Trinidad and Tobago

Feed Status: UP
Listen in your browser - HTML5 player(in browser, HTML5)
Click here to listen with your own player(launches your MP3 player)

TTCP 221800Z 10015KT 9999 FEW024 30/22 Q1016 NOSIG

TTCP Flight Activity (Flightaware)

Listeners: 0 out of 1750 total

Piarco Approach: 119.000
Robinson Ground: 121.700
Robinson Tower: 118.400

TTPP Apron/Gnd/Twr (Archives)
Port of Spain, Trinidad and Tobago

Feed Status: UP
Listen in your browser - HTML5 player(in browser, HTML5)
Click here to listen with your own player(launches your MP3 player)

TTPP 221800Z 11011KT 9999 FEW032 30/20 Q1016 NOSIG

TTPP Flight Activity (Flightaware)

Listeners: 5 out of 1750 total

Piarco Apron: 121.750
Piarco Ground: 121.900
Piarco Tower: 118.100

TTPP Piarco App/Center (Archives)
Port of Spain, Trinidad and Tobago

Feed Status: UP
Listen in your browser - HTML5 player(in browser, HTML5)
Click here to listen with your own player(launches your MP3 player)

TTPP 221800Z 11011KT 9999 FEW032 30/20 Q1016 NOSIG

TTPP Flight Activity (Flightaware)

Listeners: 2 out of 1750 total

Piarco Approach: 119.550
Piarco Approach: 119.000
Piarco Approach (backup): 124.000
Piarco Center: 123.700
Piarco Center (Oceanic): 126.500
Piarco Center (South Sector): 125.400
Piarco Center Oceanic (Backup): 133.100